Time;durP1;ratioP1;P1;durP2;ratioP2;P2;SDS_P1;SDS_P2;PMS_P1;PMS_P2;Temp;Humidity;BMP_temperature;BMP_pressure;BME280_temperature;BME280_humidity;BME280_pressure;Samples;Min_cycle;Max_cycle;Signal;HPM_P1;HPM_P2
2022/05/29 00:01:13;;;;;;;3.15;0.50;;;;;;;14.18;46.57;98598.16;5089555;28;20079;-60
2022/05/29 00:03:58;;;;;;;0.93;0.32;;;;;;;14.06;47.68;98593.94;5088355;28;20059;-65
2022/05/29 00:06:47;;;;;;;1.15;0.30;;;;;;;14.23;47.70;98595.13;5069413;28;20210;-62
2022/05/29 00:09:37;;;;;;;1.23;0.38;;;;;;;14.23;46.57;98595.13;5092742;28;20040;-61
2022/05/29 00:12:23;;;;;;;1.20;0.30;;;;;;;14.29;45.58;98587.53;5088838;28;20080;-61
2022/05/29 00:15:09;;;;;;;2.28;0.40;;;;;;;14.12;47.65;98583.72;5088496;28;20051;-61
2022/05/29 00:17:54;;;;;;;1.10;0.50;;;;;;;14.32;48.65;98575.88;5088601;28;20065;-62
2022/05/29 00:20:40;;;;;;;3.33;0.57;;;;;;;14.15;46.59;98580.81;5089395;28;20032;-61
2022/05/29 00:23:27;;;;;;;0.85;0.30;;;;;;;14.43;44.50;98582.03;5096612;28;20147;-61
2022/05/29 00:26:13;;;;;;;1.50;0.40;;;;;;;13.45;46.07;98572.69;5110931;28;20123;-62
2022/05/29 00:28:59;;;;;;;0.80;0.38;;;;;;;13.53;48.95;98573.72;5110275;28;20062;-62
2022/05/29 00:31:43;;;;;;;0.95;0.40;;;;;;;13.24;49.62;98576.13;5111903;28;20050;-61
2022/05/29 00:34:28;;;;;;;1.25;0.40;;;;;;;13.52;48.58;98564.16;5111473;28;20893;-61
2022/05/29 00:37:14;;;;;;;1.45;0.55;;;;;;;13.83;49.58;98576.50;5111483;28;20035;-60
2022/05/29 00:39:59;;;;;;;1.50;0.30;;;;;;;13.96;50.43;98564.91;5110450;28;20036;-61
2022/05/29 00:42:44;;;;;;;0.73;0.30;;;;;;;14.02;50.25;98559.13;5111268;28;20040;-61
2022/05/29 00:45:36;;;;;;;3.45;0.50;;;;;;;14.25;49.80;98558.94;5110527;28;20044;-61
2022/05/29 00:48:21;;;;;;;2.13;0.32;;;;;;;14.41;49.55;98561.88;5111576;28;20047;-60
2022/05/29 00:51:11;;;;;;;0.68;0.38;;;;;;;14.60;49.57;98555.00;5111538;28;20035;-60
2022/05/29 00:53:56;;;;;;;1.00;0.30;;;;;;;14.53;49.18;98559.13;5110711;28;20040;-61
2022/05/29 00:56:43;;;;;;;1.35;0.40;;;;;;;14.49;49.18;98555.13;5110992;27;20035;-61
2022/05/29 00:59:31;;;;;;;1.63;0.50;;;;;;;14.38;49.07;98558.69;5112154;28;20058;-60
2022/05/29 01:02:16;;;;;;;2.40;0.30;;;;;;;14.53;48.62;98552.06;5111280;28;20040;-62
2022/05/29 01:05:05;;;;;;;3.85;0.50;;;;;;;14.66;47.53;98559.72;5111003;28;20118;-61
2022/05/29 01:08:02;;;;;;;1.48;0.40;;;;;;;14.63;47.73;98564.44;5109547;28;20040;-61
2022/05/29 01:10:50;;;;;;;1.35;0.30;;;;;;;14.55;47.70;98559.84;5108606;28;20876;-61
2022/05/29 01:14:12;;;;;;;1.13;0.30;;;;;;;14.65;48.16;98560.72;5110064;28;20052;-62
2022/05/29 01:17:02;;;;;;;0.77;0.30;;;;;;;14.56;46.99;98558.88;5111141;28;20042;-61
2022/05/29 01:20:18;;;;;;;3.35;0.45;;;;;;;14.65;47.66;98557.22;5109798;28;20082;-61
2022/05/29 01:23:21;;;;;;;1.63;0.52;;;;;;;14.57;47.49;98562.34;5109551;28;20167;-60
2022/05/29 01:26:38;;;;;;;0.85;0.50;;;;;;;14.12;47.71;98560.00;5109508;28;20478;-61
2022/05/29 01:29:30;;;;;;;2.83;0.52;;;;;;;14.35;49.08;98556.31;5095113;28;20126;-61
2022/05/29 01:32:23;;;;;;;0.73;0.30;;;;;;;14.44;47.26;98546.78;5109237;28;20070;-61
2022/05/29 01:35:13;;;;;;;1.50;0.40;;;;;;;14.29;47.60;98547.16;5109941;28;20432;-61
2022/05/29 01:38:00;;;;;;;0.75;0.47;;;;;;;14.20;50.45;98540.88;5111130;28;20097;-61
2022/05/29 01:40:55;;;;;;;1.10;0.50;;;;;;;14.35;50.00;98532.59;5109560;28;20043;-61
2022/05/29 01:43:58;;;;;;;0.93;0.40;;;;;;;14.11;50.32;98537.28;5109965;28;20098;-61
2022/05/29 01:46:49;;;;;;;1.23;0.40;;;;;;;14.36;49.02;98529.84;5106495;28;20048;-60
2022/05/29 01:49:40;;;;;;;1.38;0.40;;;;;;;14.18;50.09;98527.03;5095709;28;20105;-61
2022/05/29 01:52:31;;;;;;;1.83;0.50;;;;;;;14.26;50.55;98527.16;5110106;28;20059;-62
2022/05/29 01:55:36;;;;;;;0.82;0.30;;;;;;;14.36;48.22;98529.03;5108060;28;20066;-61
2022/05/29 01:58:28;;;;;;;0.95;0.40;;;;;;;14.27;49.43;98528.00;5093786;28;20043;-61
2022/05/29 02:01:15;;;;;;;2.13;0.55;;;;;;;14.11;49.74;98523.25;5109935;28;20040;-59
2022/05/29 02:04:08;;;;;;;0.77;0.40;;;;;;;14.09;48.83;98523.41;5109585;28;20075;-63
2022/05/29 02:10:10;;;;;;;1.00;0.30;;;;;;;13.99;49.59;98517.25;5117629;28;20093;-60
2022/05/29 02:12:59;;;;;;;1.77;0.30;;;;;;;14.16;49.39;98518.44;5108180;28;20047;-60
2022/05/29 02:16:09;;;;;;;2.70;0.50;;;;;;;14.26;50.07;98515.81;5108951;28;20477;-60
2022/05/29 02:19:13;;;;;;;3.05;0.40;;;;;;;14.09;48.34;98504.97;5111972;28;20073;-60
2022/05/29 02:22:35;;;;;;;0.90;0.45;;;;;;;14.27;48.59;98510.41;5120360;28;20463;-61
2022/05/29 02:25:22;;;;;;;;;;;;;;;14.49;48.91;98502.41;5118835;28;20039;-61
2022/05/29 02:28:17;;;;;;;2.20;0.40;;;;;;;14.72;48.63;98499.50;5113359;28;19988;-61
2022/05/29 02:31:32;;;;;;;0.80;0.50;;;;;;;14.72;48.55;98504.78;5109363;28;20127;-60
2022/05/29 02:34:32;;;;;;;1.67;0.30;;;;;;;15.00;46.67;98491.75;5109085;28;20063;-62
2022/05/29 02:37:29;;;;;;;1.45;0.50;;;;;;;14.71;46.80;98497.81;5109969;28;20478;-60
2022/05/29 02:40:32;;;;;;;0.93;0.30;;;;;;;14.60;47.42;98494.38;5108649;28;20040;-60
2022/05/29 02:43:45;;;;;;;1.00;0.40;;;;;;;14.61;48.34;98495.19;5108063;28;20036;-61
2022/05/29 02:46:45;;;;;;;0.68;0.50;;;;;;;14.50;48.35;98486.47;5108405;28;20176;-60
2022/05/29 02:49:45;;;;;;;2.63;0.40;;;;;;;14.72;48.01;98486.34;5107243;28;20482;-61
2022/05/29 02:52:30;;;;;;;2.05;0.30;;;;;;;14.72;45.51;98491.59;5107381;28;20116;-62
2022/05/29 02:55:16;;;;;;;1.88;0.60;;;;;;;14.31;45.40;98495.19;5107121;28;20044;-61
2022/05/29 02:58:07;;;;;;;3.38;0.70;;;;;;;14.31;46.36;98492.53;5109895;28;20042;-61
2022/05/29 03:01:25;;;;;;;1.23;0.40;;;;;;;14.47;47.14;98496.44;5092572;28;20135;-61
2022/05/29 03:04:23;;;;;;;1.17;0.40;;;;;;;14.23;44.85;98493.19;5108132;28;20071;-62
2022/05/29 03:07:47;;;;;;;0.57;0.32;;;;;;;14.04;45.17;98488.72;5109150;28;20039;-61
2022/05/29 03:10:47;;;;;;;0.75;0.32;;;;;;;14.48;47.87;98487.56;5093781;28;20067;-61
2022/05/29 03:13:52;;;;;;;0.75;0.30;;;;;;;14.38;45.34;98487.53;5108215;28;20984;-62
2022/05/29 03:17:09;;;;;;;0.73;0.47;;;;;;;14.29;46.35;98495.31;5108636;28;20580;-61
2022/05/29 03:20:23;;;;;;;1.30;0.60;;;;;;;14.32;48.53;98491.56;5108846;28;20137;-62
2022/05/29 03:23:15;;;;;;;3.53;0.70;;;;;;;14.20;47.63;98487.38;5103549;28;20537;-61
2022/05/29 03:26:08;;;;;;;1.02;0.35;;;;;;;14.47;47.55;98483.25;5106182;28;20047;-62
2022/05/29 03:29:15;;;;;;;1.20;0.40;;;;;;;14.63;47.90;98483.56;5093086;28;20046;-62
2022/05/29 03:32:02;;;;;;;1.58;0.40;;;;;;;14.23;48.24;98482.66;5105838;28;20040;-61
2022/05/29 03:34:47;;;;;;;1.83;0.38;;;;;;;13.86;47.94;98484.09;5106326;28;20040;-60
2022/05/29 03:37:35;;;;;;;2.13;0.60;;;;;;;14.27;47.28;98483.22;5103030;28;20036;-62
2022/05/29 03:40:21;;;;;;;2.08;0.50;;;;;;;14.08;48.83;98484.88;5103563;28;20490;-61
2022/05/29 03:43:06;;;;;;;0.45;0.30;;;;;;;14.12;45.18;98480.13;5107083;28;20504;-59
2022/05/29 03:45:51;;;;;;;2.15;0.40;;;;;;;13.82;48.60;98487.97;5106949;28;20074;-60
2022/05/29 03:48:36;;;;;;;2.17;0.52;;;;;;;13.96;44.35;98483.28;5107756;28;20394;-61
2022/05/29 03:51:21;;;;;;;2.55;0.50;;;;;;;13.72;48.30;98487.09;5109156;28;20048;-61
2022/05/29 03:54:06;;;;;;;1.50;0.55;;;;;;;13.91;47.22;98492.44;5096721;28;20773;-60
2022/05/29 03:56:51;;;;;;;1.17;0.45;;;;;;;14.39;46.86;98489.22;5108822;28;20418;-61
2022/05/29 03:59:35;;;;;;;0.63;0.35;;;;;;;13.38;45.59;98496.06;5092426;28;20047;-61
2022/05/29 04:02:20;;;;;;;1.45;0.50;;;;;;;13.05;52.67;98504.00;5110323;28;20040;-61
2022/05/29 04:05:14;;;;;;;1.90;0.60;;;;;;;13.96;52.91;98499.94;5110480;28;20043;-62
2022/05/29 04:14:07;;;;;;;3.08;0.88;;;;;;;14.37;51.96;98501.69;5096676;28;20051;-61
2022/05/29 04:16:54;;;;;;;3.22;1.10;;;;;;;14.10;52.48;98511.06;5109051;28;20120;-61
2022/05/29 04:19:39;;;;;;;2.40;0.80;;;;;;;14.55;52.34;98504.50;5109544;28;20036;-61
2022/05/29 04:22:23;;;;;;;1.95;1.42;;;;;;;14.14;53.05;98501.91;5107915;28;20039;-61
2022/05/29 04:25:09;;;;;;;2.38;1.00;;;;;;;14.40;53.23;98504.91;5094076;28;20047;-60
2022/05/29 04:27:54;;;;;;;2.30;1.27;;;;;;;13.85;53.90;98503.50;5109010;28;20047;-61
2022/05/29 04:30:39;;;;;;;2.75;1.58;;;;;;;13.21;55.02;98500.09;5107657;28;20035;-62
2022/05/29 04:33:24;;;;;;;4.25;1.88;;;;;;;13.24;54.59;98498.03;5110842;28;20035;-61
2022/05/29 04:36:09;;;;;;;3.63;1.48;;;;;;;13.04;57.15;98487.38;5110551;28;20059;-62
2022/05/29 04:38:55;;;;;;;2.42;1.23;;;;;;;13.51;56.42;98488.78;5111536;28;20028;-61
2022/05/29 04:41:40;;;;;;;2.45;1.20;;;;;;;14.40;54.17;98485.59;5109170;28;20539;-61
2022/05/29 04:44:25;;;;;;;3.05;1.40;;;;;;;14.69;50.50;98487.44;5107852;28;20032;-60
2022/05/29 04:47:09;;;;;;;2.70;1.33;;;;;;;14.89;51.23;98487.44;5109931;28;20035;-61
2022/05/29 04:49:54;;;;;;;2.10;0.95;;;;;;;15.22;51.38;98485.34;5108302;28;20438;-61
2022/05/29 04:52:40;;;;;;;2.58;1.08;;;;;;;14.60;52.54;98485.63;5108232;28;20039;-60
2022/05/29 04:55:26;;;;;;;3.88;1.35;;;;;;;15.20;50.61;98482.00;5109177;28;20043;-61
2022/05/29 04:58:11;;;;;;;3.08;0.90;;;;;;;15.25;51.80;98486.84;5110813;28;20047;-61
2022/05/29 05:01:01;;;;;;;4.97;1.08;;;;;;;14.44;53.92;98483.53;5107569;28;20044;-62
2022/05/29 05:03:47;;;;;;;3.83;0.90;;;;;;;14.61;49.79;98487.28;5105472;28;20115;-63
2022/05/29 05:06:32;;;;;;;2.17;0.82;;;;;;;14.85;52.55;98481.63;5103758;28;20050;-62
2022/05/29 05:09:17;;;;;;;3.38;0.80;;;;;;;15.08;47.79;98475.22;5108942;28;20043;-64
2022/05/29 05:12:02;;;;;;;2.05;0.63;;;;;;;14.85;53.35;98478.16;5110598;28;20063;-64
2022/05/29 05:14:47;;;;;;;3.85;1.20;;;;;;;14.76;53.02;98482.44;5110733;28;20466;-63
2022/05/29 05:17:33;;;;;;;3.35;0.82;;;;;;;15.03;53.55;98473.81;5107408;28;20120;-63
2022/05/29 05:20:18;;;;;;;2.47;1.02;;;;;;;14.59;48.67;98468.97;5109742;28;20027;-64
2022/05/29 05:23:03;;;;;;;2.15;1.20;;;;;;;13.93;49.10;98471.25;5108778;28;20036;-63
2022/05/29 05:25:48;;;;;;;2.80;1.13;;;;;;;14.31;54.76;98471.47;5110120;28;20038;-63
2022/05/29 05:28:33;;;;;;;2.90;1.30;;;;;;;14.30;50.45;98469.78;5079322;28;20495;-61
2022/05/29 05:31:21;;;;;;;4.72;1.17;;;;;;;14.38;50.65;98466.47;5106840;28;20042;-63
2022/05/29 05:34:07;;;;;;;2.15;1.00;;;;;;;14.48;48.43;98475.22;5106686;28;20054;-63
2022/05/29 05:36:52;;;;;;;3.08;0.85;;;;;;;14.34;47.04;98462.44;5108211;28;20031;-63
2022/05/29 05:39:37;;;;;;;2.95;1.35;;;;;;;13.72;49.29;98468.66;5093581;28;20063;-68
2022/05/29 05:42:22;;;;;;;4.35;1.10;;;;;;;13.88;49.23;98474.28;5107860;28;20101;-63
2022/05/29 05:45:10;;;;;;;1.75;0.70;;;;;;;13.82;47.31;98469.53;5105510;28;20067;-61
2022/05/29 05:47:55;;;;;;;2.30;1.48;;;;;;;13.44;47.61;98469.22;5106100;28;20071;-63
2022/05/29 05:50:40;;;;;;;3.13;0.85;;;;;;;13.88;46.57;98469.00;5106403;28;20054;-63
2022/05/29 05:53:25;;;;;;;2.42;0.90;;;;;;;14.51;45.47;98460.91;5108607;28;20044;-62
2022/05/29 05:56:13;;;;;;;5.50;0.93;;;;;;;14.81;45.20;98460.94;5109379;28;20039;-62
2022/05/29 05:58:58;;;;;;;1.50;0.80;;;;;;;15.18;47.11;98459.38;5109058;28;20185;-63
2022/05/29 06:01:43;;;;;;;3.55;1.63;;;;;;;14.97;43.21;98452.47;5107461;28;20035;-64
2022/05/29 06:04:29;;;;;;;3.22;1.45;;;;;;;15.17;43.38;98458.53;5105308;28;20623;-62
2022/05/29 06:07:14;;;;;;;4.57;0.98;;;;;;;15.36;50.80;98462.09;5104880;28;20078;-60
2022/05/29 06:09:59;;;;;;;1.42;0.70;;;;;;;15.23;41.53;98450.06;5112184;28;20046;-63
2022/05/29 06:12:44;;;;;;;2.28;0.85;;;;;;;14.26;43.48;98449.97;5108170;28;20039;-64
2022/05/29 06:15:29;;;;;;;2.38;1.10;;;;;;;14.67;43.30;98447.22;5106936;28;20512;-69
2022/05/29 06:18:16;;;;;;;2.70;0.88;;;;;;;14.95;45.51;98439.41;5108204;28;20073;-67
2022/05/29 06:21:07;;;;;;;2.55;0.90;;;;;;;14.95;42.50;98447.31;5106919;28;20184;-69
2022/05/29 06:23:52;;;;;;;5.55;1.52;;;;;;;15.55;42.89;98445.38;5106383;28;20043;-67
2022/05/29 06:26:37;;;;;;;2.17;1.00;;;;;;;15.25;39.98;98445.47;5092020;28;20193;-66
2022/05/29 06:29:22;;;;;;;2.45;0.70;;;;;;;15.20;40.95;98442.41;5105806;28;20039;-67
2022/05/29 06:32:09;;;;;;;3.47;1.20;;;;;;;15.93;42.70;98434.75;5103707;28;20027;-66
2022/05/29 06:34:53;;;;;;;2.15;0.90;;;;;;;16.62;39.56;98431.66;5106998;28;20031;-67
2022/05/29 06:37:39;;;;;;;2.95;1.25;;;;;;;16.19;40.74;98436.69;5109521;28;20039;-69
2022/05/29 06:40:27;;;;;;;2.55;0.73;;;;;;;16.34;39.11;98429.09;5107923;28;20078;-64
2022/05/29 06:43:11;;;;;;;2.13;1.30;;;;;;;15.53;40.32;98431.47;5108455;28;20051;-66
2022/05/29 06:45:58;;;;;;;1.35;0.50;;;;;;;15.51;40.78;98433.44;5107713;28;20055;-65
2022/05/29 06:48:42;;;;;;;2.67;0.57;;;;;;;16.50;39.44;98430.22;5108549;28;20054;-66
2022/05/29 06:51:28;;;;;;;1.73;0.70;;;;;;;16.75;39.43;98428.63;5102904;28;20032;-66
2022/05/29 06:54:13;;;;;;;1.83;0.52;;;;;;;16.49;40.82;98431.19;5106907;28;20044;-66
2022/05/29 06:57:00;;;;;;;4.30;0.50;;;;;;;16.33;38.89;98424.78;5094183;28;20047;-65
2022/05/29 07:08:55;;;;;;;4.25;1.50;;;;;;;15.15;41.18;98423.53;5108435;28;20154;-66
2022/05/29 07:11:42;;;;;;;3.83;1.00;;;;;;;15.42;40.92;98416.66;5109257;28;20044;-67
2022/05/29 07:14:27;;;;;;;5.25;0.80;;;;;;;15.90;47.07;98411.28;5107384;28;20073;-67
2022/05/29 07:17:12;;;;;;;1.90;1.10;;;;;;;16.69;39.18;98415.16;5108903;28;20036;-67
2022/05/29 07:19:57;;;;;;;5.38;0.80;;;;;;;16.25;39.67;98419.44;5108456;28;20477;-66
2022/05/29 07:22:43;;;;;;;2.47;0.98;;;;;;;16.38;39.20;98408.47;5109263;28;20054;-67
2022/05/29 07:25:28;;;;;;;2.38;0.80;;;;;;;16.70;39.53;98407.09;5107943;28;20497;-67
2022/05/29 07:28:13;;;;;;;3.97;0.70;;;;;;;17.21;38.87;98408.25;5111364;28;20427;-66
2022/05/29 07:30:58;;;;;;;1.50;0.70;;;;;;;16.80;38.46;98400.88;5112719;28;20168;-66
2022/05/29 07:33:43;;;;;;;4.00;1.05;;;;;;;17.40;37.57;98390.50;5097854;28;20069;-66
2022/05/29 07:36:29;;;;;;;5.22;2.28;;;;;;;17.47;38.16;98394.16;5109277;27;20063;-68
2022/05/29 07:39:15;;;;;;;3.35;0.88;;;;;;;16.80;37.03;98396.41;5111199;28;20096;-68
2022/05/29 07:45:05;;;;;;;1.67;0.75;;;;;;;16.37;37.66;98388.28;5114676;28;20078;-65
2022/05/29 07:47:51;;;;;;;2.10;0.73;;;;;;;15.81;38.28;98391.88;5112133;28;20039;-66
2022/05/29 07:50:35;;;;;;;1.80;0.70;;;;;;;16.10;36.87;98393.53;5111762;28;20042;-66
2022/05/29 07:53:21;;;;;;;3.58;0.55;;;;;;;17.27;36.09;98396.22;5115228;28;20078;-65
2022/05/29 07:56:07;;;;;;;0.88;0.32;;;;;;;18.42;34.49;98396.72;5119629;28;20287;-61
2022/05/29 07:58:52;;;;;;;0.85;0.40;;;;;;;20.22;33.09;98396.53;5121396;28;20028;-64
2022/05/29 08:01:38;;;;;;;4.82;0.75;;;;;;;18.65;34.09;98401.38;5100890;28;20556;-62
2022/05/29 08:04:23;;;;;;;2.00;0.60;;;;;;;18.93;32.11;98406.31;5097494;28;20082;-60
2022/05/29 08:07:09;;;;;;;1.40;0.40;;;;;;;20.65;31.38;98400.50;5112995;28;20093;-60
2022/05/29 08:09:55;;;;;;;3.55;0.85;;;;;;;20.32;30.70;98396.28;5113908;28;20044;-59
2022/05/29 08:12:39;;;;;;;6.88;2.38;;;;;;;20.46;30.56;98407.16;5115141;28;20036;-59
2022/05/29 08:15:24;;;;;;;1.33;0.57;;;;;;;18.76;31.31;98403.69;5110804;28;20513;-58
2022/05/29 08:18:17;;;;;;;4.65;1.25;;;;;;;18.57;34.54;98408.31;5107803;28;20031;-59
2022/05/29 08:21:02;;;;;;;4.35;1.80;;;;;;;20.14;29.86;98410.69;5093742;28;20062;-60
2022/05/29 08:32:57;;;;;;;1.27;0.38;;;;;;;17.84;33.38;98400.06;5109229;28;20055;-59
2022/05/29 08:35:45;;;;;;;2.08;0.70;;;;;;;17.86;33.38;98403.41;5111230;28;20109;-58
2022/05/29 08:38:30;;;;;;;2.97;0.70;;;;;;;18.29;33.03;98405.16;5105097;28;20043;-61
2022/05/29 08:41:20;;;;;;;84.60;32.60;;;;;;;19.19;38.63;98398.16;5107496;28;20043;-59
2022/05/29 08:44:06;;;;;;;69.57;25.85;;;;;;;21.30;37.74;98394.75;5105956;28;20047;-58
2022/05/29 08:47:00;;;;;;;54.28;20.13;;;;;;;21.26;38.77;98382.81;5108114;28;20043;-58
2022/05/29 08:49:47;;;;;;;60.90;25.17;;;;;;;20.49;36.57;98381.03;5110728;28;20047;-57
2022/05/29 08:53:10;;;;;;;17.77;6.80;;;;;;;20.19;32.22;98394.22;5110766;28;20071;-61
2022/05/29 08:56:21;;;;;;;6.13;1.98;;;;;;;19.57;32.49;98392.22;5095585;28;20394;-61
2022/05/29 08:59:27;;;;;;;8.63;3.42;;;;;;;19.67;32.64;98393.81;5111493;28;20120;-61
2022/05/29 09:02:40;;;;;;;57.58;23.17;;;;;;;19.89;38.16;98389.56;5109805;28;20039;-57
2022/05/29 09:05:41;;;;;;;10.93;4.00;;;;;;;19.53;34.30;98379.44;5106818;28;20111;-63
2022/05/29 09:09:28;;;;;;;11.30;3.47;;;;;;;19.28;32.80;98374.22;5104931;28;20039;-61
2022/05/29 09:12:19;;;;;;;14.68;6.03;;;;;;;19.02;33.50;98370.81;5103301;28;20059;-62
2022/05/29 09:15:12;;;;;;;6.45;2.10;;;;;;;18.64;32.59;98352.78;5106150;28;20042;-62
2022/05/29 09:18:02;;;;;;;8.25;2.90;;;;;;;19.31;32.01;98357.94;5107675;28;20356;-62
2022/05/29 09:20:52;;;;;;;9.82;3.72;;;;;;;18.59;33.07;98348.00;5104971;28;20071;-60
2022/05/29 09:23:46;;;;;;;14.05;5.63;;;;;;;19.43;32.52;98345.97;5104799;28;20067;-64
2022/05/29 09:26:38;;;;;;;29.27;11.18;;;;;;;19.81;36.20;98345.25;5079445;28;20036;-61
2022/05/29 09:29:23;;;;;;;8.55;3.47;;;;;;;18.95;32.83;98345.94;5092677;28;20056;-61
2022/05/29 09:32:15;;;;;;;56.00;22.85;;;;;;;19.26;44.94;98355.00;5107224;28;20035;-62
2022/05/29 09:35:03;;;;;;;71.82;26.98;;;;;;;20.64;37.87;98353.66;5104486;28;20038;-63
2022/05/29 09:38:00;;;;;;;93.95;34.50;;;;;;;21.36;35.49;98358.56;5107949;28;20042;-64
2022/05/29 09:40:57;;;;;;;69.93;27.20;;;;;;;21.38;39.09;98343.22;5107556;28;20051;-61
2022/05/29 09:44:04;;;;;;;13.60;4.75;;;;;;;21.04;34.30;98332.13;5109987;28;20042;-63
2022/05/29 09:46:51;;;;;;;64.43;23.40;;;;;;;22.11;34.51;98338.91;5090563;28;20496;-49
2022/05/29 09:49:45;;;;;;;36.45;14.05;;;;;;;22.34;30.43;98343.22;5106154;28;20436;-60
2022/05/29 09:52:34;;;;;;;18.15;8.10;;;;;;;20.86;29.30;98340.47;5106503;28;20208;-61
2022/05/29 09:55:32;;;;;;;58.83;21.05;;;;;;;20.78;35.56;98339.53;5105285;28;20047;-59
2022/05/29 09:58:23;;;;;;;17.63;6.93;;;;;;;21.00;30.01;98342.34;5109161;28;20062;-62
2022/05/29 10:01:09;;;;;;;18.00;7.90;;;;;;;20.50;33.93;98339.31;5108283;28;20044;-63
2022/05/29 10:03:56;;;;;;;35.30;14.82;;;;;;;20.77;33.89;98345.03;5109669;28;20066;-64
2022/05/29 10:06:44;;;;;;;27.25;11.90;;;;;;;20.27;36.30;98340.16;5108851;28;20449;-62
2022/05/29 10:09:30;;;;;;;12.30;6.30;;;;;;;19.67;33.61;98338.88;5109492;28;20071;-61
2022/05/29 10:12:18;;;;;;;25.48;12.30;;;;;;;18.75;36.47;98340.19;5113991;28;20032;-62
2022/05/29 10:15:04;;;;;;;29.25;12.40;;;;;;;19.43;34.59;98339.81;5108850;28;20464;-62
2022/05/29 10:17:49;;;;;;;19.48;8.23;;;;;;;20.36;36.30;98332.94;5105424;28;20424;-61
2022/05/29 10:20:43;;;;;;;42.20;17.00;;;;;;;19.98;36.00;98339.84;5105316;28;20032;-61
2022/05/29 10:23:36;;;;;;;38.78;16.60;;;;;;;20.02;37.52;98346.47;5105588;28;20031;-63
2022/05/29 10:26:23;;;;;;;46.30;19.13;;;;;;;19.78;32.64;98350.91;5102958;28;20043;-61
2022/05/29 10:29:33;;;;;;;18.20;9.10;;;;;;;19.42;31.28;98346.97;5104873;28;20112;-63
2022/05/29 10:32:23;;;;;;;29.58;14.30;;;;;;;19.38;34.70;98344.81;5104338;28;20035;-61
2022/05/29 10:35:17;;;;;;;41.53;17.63;;;;;;;19.31;34.10;98339.38;5101280;28;20070;-62
2022/05/29 10:38:28;;;;;;;1.90;0.60;;;;;;;18.71;31.28;98334.38;5104551;28;20351;-63
2022/05/29 10:41:30;;;;;;;3.05;1.80;;;;;;;18.46;31.13;98331.75;5102862;28;20390;-62
2022/05/29 10:44:36;;;;;;;3.80;1.17;;;;;;;18.21;32.71;98331.78;5107616;28;20091;-60
2022/05/29 10:47:49;;;;;;;24.02;10.63;;;;;;;18.80;31.48;98333.34;5108907;28;20058;-63
2022/05/29 10:51:10;;;;;;;57.20;23.52;;;;;;;19.19;34.41;98330.97;5105256;28;20048;-61
2022/05/29 10:54:01;;;;;;;75.60;32.35;;;;;;;19.69;36.38;98325.41;5044899;28;20099;-61
2022/05/29 10:57:15;;;;;;;55.38;24.67;;;;;;;19.44;38.90;98336.16;5105498;28;20036;-61
2022/05/29 11:00:39;;;;;;;34.97;15.77;;;;;;;19.56;33.39;98331.28;5104882;28;20046;-60
2022/05/29 11:03:51;;;;;;;26.95;12.75;;;;;;;18.78;31.95;98327.41;5073980;28;20040;-62
2022/05/29 11:06:55;;;;;;;35.22;15.90;;;;;;;19.20;33.23;98327.31;5107504;28;20141;-60
2022/05/29 11:10:10;;;;;;;77.65;31.90;;;;;;;20.01;37.91;98322.72;5105261;28;20421;-60
2022/05/29 11:13:25;;;;;;;17.63;7.28;;;;;;;20.22;34.73;98315.94;5110602;28;20043;-60
2022/05/29 11:16:25;;;;;;;118.40;45.17;;;;;;;20.31;41.17;98312.19;5109594;28;20394;-63
2022/05/29 11:19:25;;;;;;;37.78;17.02;;;;;;;20.80;33.14;98308.25;5109147;28;20376;-61
2022/05/29 11:22:38;;;;;;;6.25;2.10;;;;;;;19.87;32.35;98317.16;5108795;28;20047;-63
2022/05/29 11:25:28;;;;;;;18.98;7.75;;;;;;;20.73;33.03;98309.16;5110204;28;20044;-62
2022/05/29 11:28:29;;;;;;;18.77;7.05;;;;;;;20.42;31.28;98300.28;5111709;28;20040;-63
2022/05/29 11:31:36;;;;;;;62.20;26.25;;;;;;;20.83;30.57;98309.69;5107483;28;20025;-62
2022/05/29 11:34:23;;;;;;;34.33;13.82;;;;;;;21.08;32.08;98304.13;5106988;28;20039;-61
2022/05/29 11:37:51;;;;;;;38.20;16.75;;;;;;;20.83;27.62;98307.03;5107977;28;20049;-62
2022/05/29 11:40:43;;;;;;;19.02;9.18;;;;;;;20.46;29.03;98312.25;5108958;28;20530;-61
2022/05/29 11:43:40;;;;;;;7.55;3.53;;;;;;;19.99;28.27;98303.47;5106163;28;20056;-64
2022/05/29 11:52:49;;;;;;;16.45;5.57;;;;;;;19.24;29.97;98299.44;5107422;28;20052;-64
2022/05/29 11:55:40;;;;;;;3.88;2.00;;;;;;;19.61;28.44;98301.53;5106905;28;20568;-63
2022/05/29 11:58:46;;;;;;;7.72;2.42;;;;;;;20.40;26.15;98291.69;5109834;28;20036;-62
2022/05/29 12:01:39;;;;;;;2.83;1.25;;;;;;;20.51;26.11;98290.41;5111214;28;20040;-61
2022/05/29 12:04:36;;;;;;;21.65;7.13;;;;;;;20.38;27.80;98291.03;5111711;28;20123;-62
2022/05/29 12:07:36;;;;;;;3.38;0.80;;;;;;;19.95;24.99;98289.69;5111379;28;20486;-61
2022/05/29 12:10:24;;;;;;;3.28;1.52;;;;;;;19.82;25.30;98282.31;5111886;28;20036;-63
2022/05/29 12:13:15;;;;;;;9.70;3.33;;;;;;;20.53;25.95;98275.09;5114315;28;20401;-62
2022/05/29 12:16:10;;;;;;;23.88;9.38;;;;;;;19.91;28.31;98291.88;5109318;28;20043;-61
2022/05/29 12:18:58;;;;;;;21.20;8.05;;;;;;;20.00;29.17;98281.19;5106602;28;20078;-63
2022/05/29 12:21:45;;;;;;;45.75;15.48;;;;;;;20.49;25.96;98281.78;5106677;28;20038;-62
2022/05/29 12:24:34;;;;;;;13.35;4.47;;;;;;;19.46;26.62;98278.38;5109963;28;20070;-62
2022/05/29 12:27:23;;;;;;;42.92;17.05;;;;;;;20.16;30.56;98275.78;5104582;27;20104;-63
2022/05/29 12:30:30;;;;;;;38.58;16.15;;;;;;;19.18;29.28;98290.31;5110887;28;20039;-63
2022/05/29 12:33:18;;;;;;;70.78;27.80;;;;;;;19.80;27.48;98263.06;5110806;28;20539;-61
2022/05/29 12:36:32;;;;;;;72.47;28.02;;;;;;;19.41;31.10;98265.63;5111770;28;20112;-63
2022/05/29 12:39:30;;;;;;;58.13;23.55;;;;;;;19.96;31.35;98267.41;5110866;28;20057;-63
2022/05/29 12:42:23;;;;;;;68.30;27.33;;;;;;;19.41;32.68;98278.09;5111161;27;20039;-62
2022/05/29 12:45:33;;;;;;;38.97;14.23;;;;;;;18.88;32.78;98287.44;5107976;28;20120;-62
2022/05/29 12:48:27;;;;;;;75.38;28.73;;;;;;;19.05;32.94;98280.22;5109276;28;20036;-60
2022/05/29 12:51:42;;;;;;;56.33;20.48;;;;;;;19.10;33.35;98278.88;5110398;28;20122;-61
2022/05/29 12:54:39;;;;;;;44.13;17.25;;;;;;;18.90;36.28;98268.69;5109621;28;20494;-60
2022/05/29 12:57:47;;;;;;;59.42;23.27;;;;;;;18.99;32.67;98259.69;5109659;28;20062;-59
2022/05/29 13:00:45;;;;;;;21.23;8.63;;;;;;;18.81;32.09;98270.53;5106791;28;20043;-59
2022/05/29 13:03:52;;;;;;;23.20;9.35;;;;;;;18.86;33.70;98270.84;5109236;28;20048;-60
2022/05/29 13:06:37;;;;;;;82.75;31.63;;;;;;;19.53;33.98;98257.28;5112330;28;20109;-62
2022/05/29 13:09:28;;;;;;;99.50;38.45;;;;;;;19.86;34.37;98254.41;5113831;28;20093;-62
2022/05/29 13:12:19;;;;;;;49.10;18.58;;;;;;;19.49;33.55;98254.13;5116579;27;20039;-60
2022/05/29 13:15:08;;;;;;;28.25;11.80;;;;;;;19.36;32.49;98256.53;5110564;28;20039;-60
2022/05/29 13:18:04;;;;;;;23.95;9.02;;;;;;;19.31;30.93;98259.72;5111801;28;20039;-62
2022/05/29 13:21:07;;;;;;;26.55;10.18;;;;;;;19.39;35.10;98257.00;5116053;28;20036;-64
2022/05/29 13:23:55;;;;;;;16.55;5.72;;;;;;;18.90;35.17;98266.03;5117169;28;20035;-64
2022/05/29 13:26:43;;;;;;;64.60;24.60;;;;;;;19.16;33.82;98262.31;5114423;28;20477;-64
2022/05/29 13:29:56;;;;;;;93.45;35.80;;;;;;;19.91;32.14;98251.19;5109444;28;20545;-62
2022/05/29 13:32:40;;;;;;;53.35;20.27;;;;;;;19.62;34.65;98250.91;5111194;28;20111;-62
2022/05/29 13:35:41;;;;;;;88.00;30.58;;;;;;;19.51;34.96;98253.97;5111441;28;20088;-64
2022/05/29 13:38:47;;;;;;;67.88;25.17;;;;;;;19.70;35.15;98250.00;5081480;28;20063;-62
2022/05/29 13:41:52;;;;;;;131.50;52.35;;;;;;;20.19;37.31;98250.63;5109372;28;20066;-61
2022/05/29 13:44:42;;;;;;;12.63;5.22;;;;;;;20.27;32.43;98249.75;5109734;28;20069;-61
2022/05/29 13:47:37;;;;;;;210.15;79.70;;;;;;;20.29;38.57;98245.06;5109148;28;20036;-61
2022/05/29 13:50:28;;;;;;;31.08;14.27;;;;;;;19.89;32.14;98240.75;5109145;28;20470;-61
2022/05/29 13:53:39;;;;;;;123.25;47.70;;;;;;;19.57;37.09;98242.63;5108257;28;20047;-61
2022/05/29 13:57:01;;;;;;;69.80;28.03;;;;;;;19.32;35.23;98246.25;5094533;28;20503;-61
2022/05/29 14:06:17;;;;;;;21.88;8.40;;;;;;;18.73;36.22;98251.97;5109565;28;20112;-59
2022/05/29 14:09:11;;;;;;;120.18;47.80;;;;;;;19.28;39.13;98241.47;5094115;28;20035;-61
2022/05/29 14:12:10;;;;;;;148.90;55.88;;;;;;;18.40;37.23;98243.09;5107543;28;20051;-59